KFDK/FDK METAR and TAF weather

Enter ICAO airport designator
Station Type Date Time Source
KFDK METAR 2021/08/01 16:47 UTC NOAA

KFDK 011647Z 00000KT 10SM OVC019 22/21 A2989


Station Type Date Time Source
KFDK Decoded METAR 2021/08/01 16:47 UTC NOAA

Frederick, Frederick Municipal Airport, MD, United States (KFDK) 39-25-03N 077-22-28W
Aug 01, 2021 - 12:47 PM EDT / 2021.08.01 1647 UTC
Wind: Calm:0
Visibility: 10 mile(s):0
Sky conditions: overcast
Temperature: 71 F (22 C)
Dew Point: 69 F (21 C)
Relative Humidity: 94%
Pressure (altimeter): 29.89 in. Hg (1012 hPa)
ob: KFDK 011647Z 00000KT 10SM OVC019 22/21 A2989
cycle: 17

Station Type Date Time Source
KFDK TAF UTC NOAA

Error!

Example: see airport list